Time;durP1;ratioP1;P1;durP2;ratioP2;P2;SDS_P1;SDS_P2;PMS_P1;PMS_P2;Temp;Humidity;BMP_temperature;BMP_pressure;BME280_temperature;BME280_humidity;BME280_pressure;Samples;Min_cycle;Max_cycle;Signal;HPM_P1;HPM_P2
2021/06/22 00:01:10;;;;;;;4.73;4.37;;;;;;;13.33;94.32;99949.41;5105142;28;20590;-74
2021/06/22 00:03:36;;;;;;;3.83;3.60;;;;;;;13.43;93.90;99981.38;5104365;28;20214;-73
2021/06/22 00:06:04;;;;;;;3.90;2.97;;;;;;;13.50;93.22;99994.22;5104914;28;20885;-73
2021/06/22 00:08:31;;;;;;;3.43;3.13;;;;;;;13.45;92.80;100021.50;5105146;28;20214;-74
2021/06/22 00:10:57;;;;;;;6.40;3.43;;;;;;;13.49;92.85;100021.34;5104676;28;20204;-74
2021/06/22 00:13:24;;;;;;;3.67;3.37;;;;;;;13.52;92.65;100036.13;5104380;28;20213;-73
2021/06/22 00:15:51;;;;;;;3.43;3.13;;;;;;;13.57;92.54;100049.03;5104811;28;20227;-74
2021/06/22 00:18:17;;;;;;;3.27;2.97;;;;;;;13.60;92.31;100033.22;5104202;28;20246;-74
2021/06/22 00:20:44;;;;;;;5.70;3.47;;;;;;;13.65;92.32;100081.94;5104437;28;20567;-73
2021/06/22 00:23:12;;;;;;;3.47;3.00;;;;;;;13.72;92.61;100178.78;5104356;28;20248;-74
2021/06/22 00:25:38;;;;;;;4.07;3.37;;;;;;;13.57;92.62;100122.47;5106860;28;20231;-74
2021/06/22 00:28:04;;;;;;;4.23;3.53;;;;;;;13.54;93.04;100264.19;5114476;28;20378;-73
2021/06/22 00:30:31;;;;;;;3.60;3.27;;;;;;;13.40;93.25;100141.41;5113982;28;20216;-73
2021/06/22 00:32:57;;;;;;;5.20;3.50;;;;;;;13.24;93.71;100063.31;5113112;28;20207;-73
2021/06/22 00:35:26;;;;;;;3.90;3.60;;;;;;;13.26;94.43;100069.34;5113264;28;20497;-73
2021/06/22 00:37:52;;;;;;;3.63;3.30;;;;;;;13.42;93.48;100061.81;5104663;28;20209;-74
2021/06/22 00:40:20;;;;;;;3.73;3.43;;;;;;;13.29;93.80;100050.03;5104640;28;20214;-74
2021/06/22 00:42:47;;;;;;;4.37;3.73;;;;;;;13.15;94.08;99992.88;5103375;28;20205;-74
2021/06/22 00:45:16;;;;;;;4.77;4.30;;;;;;;13.16;93.70;99946.56;5103768;28;20780;-74
2021/06/22 00:47:42;;;;;;;5.03;4.27;;;;;;;13.10;94.11;99955.50;5103355;28;20210;-72
2021/06/22 00:50:11;;;;;;;5.03;4.63;;;;;;;12.94;94.57;100082.72;5104360;28;20202;-74
2021/06/22 00:52:39;;;;;;;5.63;5.13;;;;;;;13.00;94.84;99941.91;5103854;28;20217;-74
2021/06/22 00:55:12;;;;;;;7.57;5.03;;;;;;;12.97;94.86;100038.09;5103849;28;20272;-73
2021/06/22 00:57:40;;;;;;;5.53;5.00;;;;;;;12.95;94.91;100053.84;5103851;28;20297;-74
2021/06/22 01:00:09;;;;;;;5.27;4.80;;;;;;;12.93;94.82;100005.91;5103639;28;20230;-74
2021/06/22 01:02:35;;;;;;;7.40;5.13;;;;;;;12.86;94.80;100081.25;5103673;28;20259;-74
2021/06/22 01:05:02;;;;;;;5.77;5.30;;;;;;;12.73;95.23;99997.91;5103692;28;20225;-73
2021/06/22 01:07:29;;;;;;;12.10;6.70;;;;;;;12.80;95.44;100007.22;5103787;28;20756;-73
2021/06/22 01:09:55;;;;;;;6.57;5.30;;;;;;;12.91;95.15;100155.28;5103957;28;20238;-74
2021/06/22 01:12:22;;;;;;;6.43;5.90;;;;;;;12.91;94.82;100067.97;5103527;28;20202;-73
2021/06/22 01:14:50;;;;;;;6.60;5.97;;;;;;;12.99;94.51;100036.28;5103149;28;20266;-73
2021/06/22 01:17:16;;;;;;;6.87;6.10;;;;;;;12.98;94.76;100027.53;5103505;28;20213;-74
2021/06/22 01:19:44;;;;;;;8.07;5.87;;;;;;;13.00;94.52;100141.03;5102993;28;20640;-74
2021/06/22 01:22:12;;;;;;;8.43;5.80;;;;;;;12.93;94.28;100113.31;5103177;28;20247;-74
2021/06/22 01:24:39;;;;;;;9.13;6.20;;;;;;;12.94;94.26;100090.59;5103031;28;20232;-73
2021/06/22 01:27:05;;;;;;;6.80;6.10;;;;;;;12.80;94.75;100128.56;5103342;28;20834;-73
2021/06/22 01:29:32;;;;;;;6.20;5.50;;;;;;;12.90;94.50;100093.31;5103358;28;20205;-74
2021/06/22 01:31:59;;;;;;;8.20;5.57;;;;;;;12.91;94.64;100037.38;5103312;28;20603;-74
2021/06/22 01:34:28;;;;;;;6.47;5.97;;;;;;;12.78;94.74;100148.72;5103276;28;20210;-74
2021/06/22 01:36:58;;;;;;;7.60;5.43;;;;;;;12.71;95.00;100055.56;5103217;28;20520;-74
2021/06/22 01:39:27;;;;;;;6.67;6.03;;;;;;;12.68;95.07;100040.78;5103132;28;20676;-75
2021/06/22 01:41:53;;;;;;;8.23;6.73;;;;;;;12.73;95.19;100595.91;5103299;27;20276;-75
2021/06/22 01:44:19;;;;;;;7.10;6.27;;;;;;;12.95;95.53;100068.72;5103841;27;20205;-74
2021/06/22 01:46:46;;;;;;;6.50;5.97;;;;;;;13.15;95.17;100040.03;5103825;27;20283;-73
2021/06/22 01:49:12;;;;;;;6.27;5.77;;;;;;;13.07;93.57;100188.84;5103898;27;20206;-74
2021/06/22 01:51:39;;;;;;;7.40;5.87;;;;;;;12.95;92.91;100158.66;5103750;27;20491;-74
2021/06/22 01:54:05;;;;;;;7.73;6.83;;;;;;;12.99;93.19;100173.34;5103114;28;20423;-74
2021/06/22 01:56:34;;;;;;;8.60;6.40;;;;;;;13.13;93.16;100178.13;5103786;27;20726;-74
2021/06/22 01:59:01;;;;;;;7.50;6.80;;;;;;;12.99;92.28;100314.00;5103424;28;20214;-74
2021/06/22 02:01:28;;;;;;;7.13;6.43;;;;;;;12.87;92.60;100260.22;5103245;28;20239;-73
2021/06/22 02:03:55;;;;;;;7.90;7.13;;;;;;;12.82;92.91;100201.88;5103104;28;20213;-73
2021/06/22 02:06:22;;;;;;;7.67;6.97;;;;;;;12.88;92.97;100235.72;5103667;28;20226;-74
2021/06/22 02:08:48;;;;;;;8.43;7.13;;;;;;;13.00;92.44;100269.41;5103297;28;20681;-73
2021/06/22 02:11:15;;;;;;;7.93;7.17;;;;;;;13.13;92.14;100303.94;5103777;28;20424;-74
2021/06/22 02:13:42;;;;;;;10.00;6.63;;;;;;;13.22;92.05;100277.44;5103188;28;20259;-73
2021/06/22 02:16:09;;;;;;;9.57;6.40;;;;;;;13.35;91.82;100296.25;5103597;28;20810;-74
2021/06/22 02:18:35;;;;;;;9.37;6.80;;;;;;;13.36;91.13;100329.47;5103114;28;20233;-74
2021/06/22 02:21:03;;;;;;;7.77;6.37;;;;;;;13.28;90.42;100738.63;5103543;28;20206;-73
2021/06/22 02:23:29;;;;;;;8.97;7.10;;;;;;;13.15;91.26;100391.22;5103117;28;20639;-74
2021/06/22 02:25:56;;;;;;;7.90;6.50;;;;;;;13.33;91.16;100305.09;5103354;28;20700;-73
2021/06/22 02:28:22;;;;;;;8.50;6.53;;;;;;;13.48;90.97;100418.22;5103064;28;20761;-73
2021/06/22 02:30:51;;;;;;;8.67;6.63;;;;;;;13.47;90.40;100292.38;5103327;28;20203;-73
2021/06/22 02:33:17;;;;;;;9.90;7.47;;;;;;;13.35;90.53;100216.78;5102763;28;20201;-74
2021/06/22 02:35:44;;;;;;;9.27;6.90;;;;;;;13.31;90.87;100198.50;5103261;28;20226;-74
2021/06/22 02:38:12;;;;;;;7.97;6.30;;;;;;;13.17;90.45;100257.53;5103288;28;20213;-73
2021/06/22 02:40:38;;;;;;;9.90;6.57;;;;;;;13.10;90.25;100269.94;5103334;28;20758;-74
2021/06/22 02:43:05;;;;;;;9.67;6.63;;;;;;;12.99;90.14;100317.47;5102388;28;20264;-73
2021/06/22 02:45:33;;;;;;;7.10;5.77;;;;;;;12.84;90.22;100283.88;5102847;28;20612;-73
2021/06/22 02:48:02;;;;;;;6.93;6.20;;;;;;;12.85;90.88;100212.25;5103290;28;20543;-73
2021/06/22 02:50:28;;;;;;;10.07;5.70;;;;;;;12.85;90.90;100184.28;5102877;28;20677;-73
2021/06/22 02:52:55;;;;;;;7.27;6.13;;;;;;;12.85;91.14;100197.38;5101961;28;20213;-74
2021/06/22 02:55:21;;;;;;;12.10;6.03;;;;;;;12.81;91.11;100221.97;5101342;28;20223;-73
2021/06/22 02:57:49;;;;;;;10.33;6.67;;;;;;;12.80;91.14;100180.94;5102654;28;20214;-73
2021/06/22 03:00:16;;;;;;;7.50;5.67;;;;;;;12.96;90.47;100177.84;5102871;28;20210;-74
2021/06/22 03:02:43;;;;;;;8.03;5.77;;;;;;;13.18;89.91;100253.97;5101850;28;20873;-74
2021/06/22 03:05:12;;;;;;;6.83;5.63;;;;;;;13.27;90.21;100275.50;5101833;28;21044;-74
2021/06/22 03:07:39;;;;;;;6.77;6.07;;;;;;;13.43;88.83;100299.50;5102252;28;20287;-74
2021/06/22 03:10:06;;;;;;;9.63;6.30;;;;;;;13.52;89.01;100280.00;5102681;28;20240;-75
2021/06/22 03:12:33;;;;;;;8.63;5.40;;;;;;;13.64;88.88;100283.97;5105521;28;20207;-74
2021/06/22 03:14:59;;;;;;;6.00;4.90;;;;;;;13.77;88.33;100284.38;5105971;28;20229;-73
2021/06/22 03:17:26;;;;;;;7.90;5.40;;;;;;;13.85;88.36;100293.69;5105827;27;20260;-74
2021/06/22 03:19:52;;;;;;;8.97;5.40;;;;;;;13.83;87.75;100313.88;5106088;28;20245;-74
2021/06/22 03:22:20;;;;;;;8.50;5.53;;;;;;;13.76;87.58;100319.41;5105410;28;20636;-73
2021/06/22 03:24:47;;;;;;;9.27;5.30;;;;;;;13.73;88.75;100314.25;5105510;27;20211;-73
2021/06/22 03:27:14;;;;;;;9.33;5.23;;;;;;;13.76;89.16;100266.94;5107995;28;20205;-75
2021/06/22 03:29:42;;;;;;;7.63;5.27;;;;;;;13.84;88.24;100280.66;5107798;28;20286;-74
2021/06/22 03:32:09;;;;;;;10.90;6.13;;;;;;;13.81;87.19;100404.06;5107162;28;20580;-73
2021/06/22 03:34:36;;;;;;;8.30;5.27;;;;;;;13.89;87.23;100358.31;5106485;28;20237;-72
2021/06/22 03:37:03;;;;;;;8.17;5.37;;;;;;;13.87;87.58;100341.75;5105696;28;20206;-72
2021/06/22 03:39:31;;;;;;;11.60;5.33;;;;;;;13.94;87.87;100371.25;5105404;28;20215;-75
2021/06/22 03:41:57;;;;;;;11.43;5.60;;;;;;;13.88;87.77;100458.06;5104869;28;20208;-75
2021/06/22 03:44:24;;;;;;;8.00;5.83;;;;;;;13.97;87.64;100357.16;5105204;28;20750;-75
2021/06/22 03:46:50;;;;;;;7.03;5.27;;;;;;;14.04;87.79;100379.69;5105447;28;20276;-74
2021/06/22 03:49:17;;;;;;;13.47;5.90;;;;;;;14.10;87.05;100367.19;5105183;28;20445;-74
2021/06/22 03:51:43;;;;;;;6.83;4.87;;;;;;;14.15;86.55;100369.63;5105237;28;20631;-75
2021/06/22 03:54:09;;;;;;;7.33;4.90;;;;;;;14.20;87.37;100359.00;5104848;28;20280;-74
2021/06/22 03:56:37;;;;;;;7.37;5.33;;;;;;;14.21;87.19;100365.94;5105111;28;20583;-74
2021/06/22 03:59:04;;;;;;;10.17;5.57;;;;;;;14.26;86.96;100388.50;5104727;28;20256;-74
2021/06/22 04:01:30;;;;;;;7.77;5.13;;;;;;;14.38;87.57;100465.16;5104958;28;20211;-74
2021/06/22 04:03:57;;;;;;;7.30;5.60;;;;;;;14.41;86.97;100388.88;5104550;28;20206;-73
2021/06/22 04:06:23;;;;;;;8.87;6.00;;;;;;;14.20;86.01;100467.47;5104909;28;20267;-73
2021/06/22 04:08:49;;;;;;;8.20;5.77;;;;;;;14.06;85.70;100459.22;5104840;28;20203;-74
2021/06/22 04:11:16;;;;;;;10.27;6.10;;;;;;;14.05;85.88;100449.63;5105022;28;20211;-74
2021/06/22 04:13:43;;;;;;;7.67;6.00;;;;;;;14.01;86.36;100395.50;5103775;28;20701;-74
2021/06/22 04:16:10;;;;;;;11.00;5.87;;;;;;;13.92;87.85;100359.97;5104517;28;20223;-74
2021/06/22 04:18:36;;;;;;;9.03;6.60;;;;;;;13.73;87.98;100336.09;5104392;28;20291;-74
2021/06/22 04:21:03;;;;;;;7.60;6.60;;;;;;;13.65;88.55;100315.38;5104569;28;20470;-74
2021/06/22 04:23:29;;;;;;;9.17;6.57;;;;;;;13.61;88.08;100342.59;5103507;28;20200;-73
2021/06/22 04:25:55;;;;;;;9.43;6.67;;;;;;;13.54;87.69;100424.16;5104101;28;20278;-74
2021/06/22 04:28:22;;;;;;;13.03;6.37;;;;;;;13.54;88.54;100395.31;5104269;28;20676;-73
2021/06/22 04:30:50;;;;;;;9.23;7.33;;;;;;;13.57;89.75;100311.28;5104291;28;20703;-74
2021/06/22 04:33:16;;;;;;;8.60;6.90;;;;;;;13.58;89.37;100310.41;5104093;28;20207;-74
2021/06/22 04:35:42;;;;;;;11.10;6.60;;;;;;;13.55;89.93;100328.84;5104202;28;20543;-73
2021/06/22 04:38:10;;;;;;;10.97;6.57;;;;;;;13.41;90.08;100322.28;5104891;28;20195;-74
2021/06/22 04:40:38;;;;;;;13.00;6.10;;;;;;;13.41;90.22;100363.38;5104233;28;20222;-74
2021/06/22 04:43:05;;;;;;;8.93;6.77;;;;;;;13.55;89.75;100345.44;5103469;28;20867;-73
2021/06/22 04:45:32;;;;;;;8.47;6.07;;;;;;;13.54;89.75;100377.81;5103923;28;20584;-73
2021/06/22 04:48:00;;;;;;;7.63;5.20;;;;;;;13.41;90.51;100289.97;5104073;28;20199;-73
2021/06/22 04:50:27;;;;;;;8.47;5.37;;;;;;;13.23;91.40;100223.25;5104227;28;20206;-74
2021/06/22 04:52:55;;;;;;;15.93;6.00;;;;;;;13.13;91.86;100292.59;5103444;28;20244;-74
2021/06/22 04:55:24;;;;;;;11.43;6.43;;;;;;;13.11;92.41;100246.31;5103734;28;20225;-74
2021/06/22 04:57:50;;;;;;;12.40;5.70;;;;;;;13.31;91.56;100326.97;5103598;27;20428;-74
2021/06/22 05:00:18;;;;;;;6.47;5.70;;;;;;;13.37;91.65;100244.63;5104254;28;20201;-74
2021/06/22 05:02:45;;;;;;;8.10;5.87;;;;;;;13.41;90.43;100340.63;5103420;28;20263;-74
2021/06/22 05:05:14;;;;;;;13.23;5.97;;;;;;;13.50;89.91;100298.38;5103698;28;20713;-74
2021/06/22 05:07:41;;;;;;;10.03;5.63;;;;;;;13.60;89.87;100293.69;5103388;28;20215;-74
2021/06/22 05:10:09;;;;;;;6.27;5.63;;;;;;;13.67;90.10;100312.69;5103213;28;20680;-73
2021/06/22 05:12:36;;;;;;;6.50;5.27;;;;;;;13.44;89.78;100301.22;5103273;28;20936;-74
2021/06/22 05:15:03;;;;;;;9.23;5.97;;;;;;;13.31;90.43;100368.91;5103708;28;20294;-74
2021/06/22 05:17:29;;;;;;;7.70;5.57;;;;;;;13.47;90.52;100295.00;5103192;28;20998;-74
2021/06/22 05:19:56;;;;;;;7.77;5.43;;;;;;;13.61;90.19;100284.91;5103756;28;20215;-74
2021/06/22 05:22:23;;;;;;;9.37;6.23;;;;;;;13.70;90.39;100291.63;5103146;28;20778;-74
2021/06/22 05:24:50;;;;;;;10.20;6.23;;;;;;;13.64;89.62;100452.69;5103746;28;20206;-74
2021/06/22 05:27:16;;;;;;;10.10;5.70;;;;;;;13.78;89.40;100457.50;5108133;28;20227;-74
2021/06/22 05:29:43;;;;;;;9.87;5.83;;;;;;;13.75;89.19;100394.63;5108560;28;20218;-74
2021/06/22 05:32:10;;;;;;;9.23;6.00;;;;;;;13.75;88.46;100399.00;5107242;28;20254;-74
2021/06/22 05:34:36;;;;;;;10.90;5.90;;;;;;;13.85;88.75;100403.88;5102954;28;20218;-74
2021/06/22 05:37:03;;;;;;;6.20;5.10;;;;;;;13.82;87.86;100377.78;5102941;28;20297;-73
2021/06/22 05:39:31;;;;;;;11.27;6.30;;;;;;;13.80;87.96;100365.63;5103142;28;20213;-74
2021/06/22 05:41:57;;;;;;;9.20;6.13;;;;;;;13.97;88.06;100365.88;5102794;28;20270;-73
2021/06/22 05:44:24;;;;;;;7.10;5.30;;;;;;;14.15;87.41;100398.50;5103048;28;20629;-73
2021/06/22 05:46:50;;;;;;;7.60;5.10;;;;;;;14.28;87.61;100359.59;5102775;28;20231;-74
2021/06/22 05:49:16;;;;;;;8.23;4.80;;;;;;;14.35;86.88;100396.97;5102817;28;20602;-74
2021/06/22 05:51:43;;;;;;;8.60;6.07;;;;;;;14.35;86.50;100410.97;5102786;28;20287;-74
2021/06/22 05:54:10;;;;;;;7.97;5.70;;;;;;;14.43;85.60;100453.59;5102733;28;20214;-74
2021/06/22 05:56:38;;;;;;;10.30;5.90;;;;;;;14.50;85.28;100478.72;5102849;28;20229;-74
2021/06/22 05:59:04;;;;;;;6.93;4.90;;;;;;;14.61;84.91;100457.38;5102684;28;20736;-74
2021/06/22 06:01:31;;;;;;;6.33;4.90;;;;;;;14.75;83.18;100540.13;5102813;28;20259;-74
2021/06/22 06:03:57;;;;;;;6.83;4.43;;;;;;;14.83;81.57;100604.63;5102646;28;20241;-76
2021/06/22 06:06:24;;;;;;;5.57;5.07;;;;;;;14.90;80.72;100647.31;5102556;28;20230;-76
2021/06/22 06:08:50;;;;;;;6.53;5.10;;;;;;;14.95;80.42;100673.47;5103950;28;20199;-76
2021/06/22 06:11:16;;;;;;;8.77;5.37;;;;;;;14.98;80.63;100673.34;5102968;28;20222;-75
2021/06/22 06:13:44;;;;;;;8.20;5.30;;;;;;;14.92;80.30;100703.31;5103195;28;20264;-76
2021/06/22 06:16:11;;;;;;;7.20;5.40;;;;;;;15.00;80.71;100676.78;5103378;28;20252;-76
2021/06/22 06:18:38;;;;;;;11.73;5.40;;;;;;;15.12;79.85;100707.06;5103152;28;20219;-76
2021/06/22 06:21:04;;;;;;;7.03;6.37;;;;;;;15.19;79.39;100722.59;5103332;28;20229;-75
2021/06/22 06:23:34;;;;;;;6.50;5.30;;;;;;;15.28;79.48;100722.28;5103294;28;20284;-76
2021/06/22 06:26:01;;;;;;;8.63;7.17;;;;;;;15.28;78.90;100745.97;5103169;28;20711;-76
2021/06/22 06:28:30;;;;;;;9.73;7.80;;;;;;;15.35;78.76;100743.97;5103480;28;20217;-76
2021/06/22 06:30:58;;;;;;;8.53;7.70;;;;;;;15.16;78.51;100788.41;5103974;28;20210;-75
2021/06/22 06:33:25;;;;;;;10.53;7.93;;;;;;;15.35;79.10;100741.34;5102971;28;20275;-76
2021/06/22 06:35:53;;;;;;;10.53;9.57;;;;;;;15.48;79.55;100720.75;5103306;28;20223;-75
2021/06/22 06:38:20;;;;;;;12.23;8.77;;;;;;;15.50;78.41;100758.41;5103938;28;20215;-76
2021/06/22 06:40:46;;;;;;;10.63;9.63;;;;;;;15.53;78.20;100774.06;5103002;28;20212;-76
2021/06/22 06:43:12;;;;;;;11.37;9.13;;;;;;;15.63;78.87;100749.13;5103269;28;20207;-76
2021/06/22 06:45:39;;;;;;;9.17;8.27;;;;;;;15.68;77.70;100788.47;5104523;27;20637;-76
2021/06/22 06:48:08;;;;;;;13.40;9.80;;;;;;;15.72;77.01;100820.78;5106918;27;21218;-76
2021/06/22 06:50:35;;;;;;;11.07;10.10;;;;;;;15.75;78.07;100770.72;5107057;27;20207;-76
2021/06/22 06:53:01;;;;;;;11.50;10.33;;;;;;;15.79;77.02;100820.56;5106808;27;20639;-76
2021/06/22 06:55:28;;;;;;;10.53;9.63;;;;;;;15.88;76.79;100877.31;5114648;27;20238;-76
2021/06/22 06:57:55;;;;;;;9.97;9.27;;;;;;;15.91;75.76;100845.59;5117250;27;20222;-74
2021/06/22 07:00:23;;;;;;;11.97;10.73;;;;;;;15.93;76.73;100830.59;5117811;27;20233;-75
2021/06/22 07:02:50;;;;;;;17.00;10.90;;;;;;;15.96;77.12;100790.16;5115106;27;20923;-75
2021/06/22 07:05:18;;;;;;;11.30;10.13;;;;;;;16.04;76.60;100841.63;5111472;27;20229;-76
2021/06/22 07:07:45;;;;;;;14.63;9.30;;;;;;;16.09;75.90;100862.53;5105663;27;20223;-75
2021/06/22 07:10:12;;;;;;;10.17;9.10;;;;;;;16.14;75.84;100891.38;5105139;27;20203;-75
2021/06/22 07:12:39;;;;;;;11.27;10.27;;;;;;;16.12;76.07;100872.97;5105833;27;20214;-75
2021/06/22 07:15:07;;;;;;;12.30;10.97;;;;;;;16.15;76.17;100896.56;5106287;27;20220;-73
2021/06/22 07:17:33;;;;;;;10.50;9.60;;;;;;;16.22;74.79;100919.16;5106608;27;20358;-73
2021/06/22 07:20:00;;;;;;;9.67;8.63;;;;;;;16.27;74.87;100934.78;5106581;27;20205;-74
2021/06/22 07:22:27;;;;;;;9.60;7.20;;;;;;;16.28;75.00;100920.72;5106191;27;21025;-74
2021/06/22 07:24:54;;;;;;;10.30;7.40;;;;;;;16.33;74.67;100949.53;5106423;27;20208;-74
2021/06/22 07:27:20;;;;;;;13.90;7.30;;;;;;;16.37;74.31;100903.72;5106081;27;20231;-74
2021/06/22 07:29:47;;;;;;;8.43;7.73;;;;;;;16.47;74.53;100913.00;5106297;27;20895;-75
2021/06/22 07:32:13;;;;;;;9.90;7.70;;;;;;;16.56;73.25;100954.84;5106499;27;20253;-74
2021/06/22 07:34:40;;;;;;;7.03;6.43;;;;;;;16.57;72.62;101417.84;5106099;27;21439;-73
2021/06/22 07:37:06;;;;;;;6.43;5.83;;;;;;;16.61;72.45;100996.84;5104439;27;20208;-74
2021/06/22 07:39:34;;;;;;;10.70;5.83;;;;;;;16.60;72.58;100990.72;5105985;27;20216;-74
2021/06/22 07:42:00;;;;;;;6.63;6.03;;;;;;;16.75;72.57;101117.63;5105318;27;20256;-74
2021/06/22 07:44:27;;;;;;;6.93;6.20;;;;;;;16.89;72.03;100994.13;5106093;27;20232;-74
2021/06/22 07:46:53;;;;;;;6.30;5.47;;;;;;;16.95;72.12;100990.41;5105652;27;20624;-74
2021/06/22 07:49:19;;;;;;;8.87;6.13;;;;;;;17.00;72.84;100970.00;5105950;27;20203;-74
2021/06/22 07:51:46;;;;;;;8.87;6.10;;;;;;;16.93;71.06;101023.91;5105608;27;20264;-74
2021/06/22 07:54:13;;;;;;;12.53;6.43;;;;;;;17.10;71.40;101031.19;5105655;27;20256;-75
2021/06/22 07:56:41;;;;;;;5.27;4.10;;;;;;;17.06;70.94;101036.56;5104727;27;20224;-75
2021/06/22 07:59:08;;;;;;;6.77;4.70;;;;;;;17.10;70.34;101063.69;5105148;27;20207;-75
2021/06/22 08:01:35;;;;;;;8.17;4.90;;;;;;;17.12;70.43;101111.13;5105928;27;20211;-74
2021/06/22 08:04:01;;;;;;;5.13;4.60;;;;;;;17.20;70.04;101093.25;5105371;27;20745;-74
2021/06/22 08:06:27;;;;;;;4.73;4.27;;;;;;;17.15;70.12;101076.75;5105448;27;20233;-74
2021/06/22 08:08:54;;;;;;;7.53;4.67;;;;;;;17.15;70.68;101042.44;5105749;27;20204;-74
2021/06/22 08:11:20;;;;;;;4.07;3.67;;;;;;;17.16;68.59;101110.09;5105228;27;20639;-76
2021/06/22 08:13:48;;;;;;;5.97;5.20;;;;;;;17.19;69.45;101096.81;5103453;27;20248;-76
2021/06/22 08:16:14;;;;;;;4.97;4.50;;;;;;;17.14;69.71;101077.63;5104743;27;20228;-74
2021/06/22 08:18:41;;;;;;;6.67;4.20;;;;;;;17.10;70.03;101063.69;5103330;27;20280;-75
2021/06/22 08:21:07;;;;;;;5.13;3.37;;;;;;;17.11;68.65;101112.91;5104634;27;20685;-75
2021/06/22 08:23:34;;;;;;;5.67;4.20;;;;;;;17.05;68.69;101114.00;5104177;27;20203;-76
2021/06/22 08:26:01;;;;;;;5.37;3.73;;;;;;;17.06;69.67;101292.44;5104322;27;20875;-76
2021/06/22 08:28:27;;;;;;;5.73;5.17;;;;;;;17.01;69.03;101177.47;5104337;28;20229;-75
2021/06/22 08:30:55;;;;;;;5.73;4.60;;;;;;;16.88;69.86;101108.44;5104777;27;20205;-75
2021/06/22 08:33:22;;;;;;;5.67;4.50;;;;;;;16.85;70.38;101076.91;5103937;27;20199;-75
2021/06/22 08:35:48;;;;;;;4.27;3.87;;;;;;;16.67;69.56;101126.69;5105300;27;20638;-75
2021/06/22 08:38:17;;;;;;;6.03;3.80;;;;;;;16.65;69.49;101101.28;5104638;28;20193;-75
2021/06/22 08:40:44;;;;;;;8.63;4.00;;;;;;;16.62;70.44;101065.31;5104243;27;20207;-75
2021/06/22 08:43:13;;;;;;;5.60;3.10;;;;;;;16.60;69.47;101090.03;5104176;27;20216;-75
2021/06/22 08:45:40;;;;;;;4.97;3.13;;;;;;;16.59;69.43;101083.91;5104385;27;20599;-75
2021/06/22 08:48:10;;;;;;;6.73;3.40;;;;;;;16.68;69.17;101130.16;5104184;27;20231;-75
2021/06/22 08:50:38;;;;;;;3.60;2.90;;;;;;;16.81;69.61;101122.72;5103907;27;20627;-76
2021/06/22 08:53:05;;;;;;;4.20;2.80;;;;;;;16.88;68.40;101225.31;5103696;27;20237;-75
2021/06/22 08:55:32;;;;;;;6.97;2.97;;;;;;;16.91;68.95;101137.34;5104278;27;20440;-75
2021/06/22 08:58:00;;;;;;;6.90;3.73;;;;;;;16.86;67.11;101153.31;5104615;27;21204;-75
2021/06/22 09:00:27;;;;;;;5.30;2.80;;;;;;;16.66;67.23;101200.53;5103982;27;20206;-75
2021/06/22 09:03:02;;;;;;;10.20;3.27;;;;;;;16.93;69.19;101116.22;5103320;27;20204;-75
2021/06/22 09:05:30;;;;;;;7.30;2.60;;;;;;;17.14;67.38;101239.41;5103165;27;20260;-74
2021/06/22 09:07:57;;;;;;;4.67;2.60;;;;;;;17.36;67.01;101192.09;5104078;27;20233;-75
2021/06/22 09:10:27;;;;;;;3.40;2.40;;;;;;;17.57;66.28;101194.88;5104049;27;20210;-74
2021/06/22 09:12:55;;;;;;;4.03;2.60;;;;;;;17.71;65.57;101207.56;5103906;27;20231;-75
2021/06/22 09:15:24;;;;;;;3.60;2.30;;;;;;;17.77;65.48;101246.94;5103294;28;20269;-75
2021/06/22 09:17:51;;;;;;;7.47;3.10;;;;;;;17.80;65.22;101245.06;5102929;28;20212;-75
2021/06/22 09:20:35;;;;;;;6.73;3.07;;;;;;;17.55;66.38;101213.38;5102812;28;20474;-75
2021/06/22 09:23:20;;;;;;;6.90;3.03;;;;;;;17.86;65.56;101218.47;5102576;28;20205;-75
2021/06/22 09:25:48;;;;;;;4.03;2.60;;;;;;;17.98;65.09;101246.22;5102550;28;20225;-74
2021/06/22 09:28:18;;;;;;;7.17;2.43;;;;;;;17.72;63.79;101318.44;5102981;27;20231;-75
2021/06/22 09:30:48;;;;;;;3.33;2.37;;;;;;;17.69;65.14;101271.00;5103585;27;20204;-76
2021/06/22 09:33:20;;;;;;;3.97;1.90;;;;;;;17.59;62.92;101327.69;5102396;28;20567;-75
2021/06/22 09:35:50;;;;;;;3.63;2.00;;;;;;;17.48;63.14;101354.41;5102909;28;20225;-75
2021/06/22 09:38:17;;;;;;;2.60;1.83;;;;;;;17.74;65.84;101254.97;5103505;28;20996;-73
2021/06/22 09:40:43;;;;;;;4.27;2.17;;;;;;;17.88;63.82;101286.19;5103141;27;20243;-73
2021/06/22 09:43:09;;;;;;;4.83;2.53;;;;;;;17.88;63.30;101321.44;5100012;28;20209;-74
2021/06/22 09:45:37;;;;;;;4.43;2.50;;;;;;;17.79;65.24;101399.16;5101581;28;20833;-73
2021/06/22 09:48:05;;;;;;;6.77;2.53;;;;;;;17.66;65.33;101266.69;5103081;27;20215;-73
2021/06/22 09:50:38;;;;;;;5.40;2.93;;;;;;;16.76;68.27;101240.66;5103339;27;20212;-73
2021/06/22 09:53:26;;;;;;;5.17;3.37;;;;;;;16.15;71.19;100945.75;5102544;28;20604;-74
2021/06/22 09:55:53;;;;;;;5.97;3.60;;;;;;;16.27;71.63;100933.03;5102205;27;20239;-74
2021/06/22 09:58:36;;;;;;;4.10;2.83;;;;;;;16.37;71.31;100916.88;5102845;27;20204;-74
2021/06/22 10:01:03;;;;;;;4.90;2.93;;;;;;;16.15;70.95;100940.47;5102529;28;20261;-74
2021/06/22 10:03:37;;;;;;;6.00;2.77;;;;;;;16.27;70.75;100959.38;5102455;28;20236;-74
2021/06/22 10:06:07;;;;;;;4.40;2.80;;;;;;;16.24;69.94;101008.66;5103383;28;20280;-74
2021/06/22 10:08:53;;;;;;;3.87;2.50;;;;;;;16.49;70.85;100966.53;5102780;28;20991;-74
2021/06/22 10:11:37;;;;;;;5.77;2.90;;;;;;;16.58;69.75;101015.41;5103236;28;20208;-74
2021/06/22 10:14:06;;;;;;;5.60;3.10;;;;;;;16.89;69.48;101057.44;5102488;28;20693;-75
2021/06/22 10:16:34;;;;;;;5.60;2.83;;;;;;;17.13;67.80;101084.69;5103168;28;21015;-75
2021/06/22 10:19:03;;;;;;;3.93;2.53;;;;;;;17.33;67.67;101155.22;5102480;28;20208;-75
2021/06/22 10:21:31;;;;;;;3.20;2.30;;;;;;;17.55;66.59;101146.53;5105377;27;20877;-74
2021/06/22 10:23:59;;;;;;;6.23;2.23;;;;;;;17.70;66.44;101190.88;5106660;27;20629;-75
2021/06/22 10:26:28;;;;;;;5.20;2.57;;;;;;;17.62;64.19;101248.34;5106749;27;20227;-74
2021/06/22 10:28:55;;;;;;;3.40;2.33;;;;;;;18.00;64.29;101264.66;5106397;27;20229;-75
2021/06/22 10:31:21;;;;;;;4.53;2.40;;;;;;;18.39;62.59;101298.41;5107029;27;20265;-75
2021/06/22 10:33:47;;;;;;;4.20;2.00;;;;;;;18.54;61.16;101366.59;5106473;27;21223;-75
2021/06/22 10:36:29;;;;;;;3.53;1.97;;;;;;;18.98;64.41;101213.22;5106452;27;20229;-76
2021/06/22 10:39:02;;;;;;;3.27;2.10;;;;;;;19.07;60.65;101393.72;5106727;27;20202;-75
2021/06/22 10:41:35;;;;;;;6.17;2.30;;;;;;;19.23;59.87;101406.31;5106696;27;20201;-75
2021/06/22 10:44:01;;;;;;;6.40;2.40;;;;;;;19.39;59.56;101667.84;5106525;27;20574;-75
2021/06/22 10:46:27;;;;;;;2.83;1.83;;;;;;;19.46;58.50;101502.47;5106921;27;20234;-75
2021/06/22 10:48:54;;;;;;;3.50;2.27;;;;;;;19.27;59.35;101462.63;5106638;27;20777;-75
2021/06/22 10:51:44;;;;;;;4.20;2.60;;;;;;;19.27;58.83;101467.09;5106208;27;20206;-75
2021/06/22 10:54:13;;;;;;;4.07;2.20;;;;;;;19.21;60.92;101357.00;5106353;27;20216;-74
2021/06/22 10:56:43;;;;;;;3.53;2.70;;;;;;;18.44;60.86;101373.16;5105935;27;20825;-75
2021/06/22 10:59:23;;;;;;;5.77;2.60;;;;;;;17.89;62.83;101286.16;5106717;27;20209;-73
2021/06/22 11:02:00;;;;;;;3.63;2.47;;;;;;;18.14;63.44;101214.78;5106032;27;20215;-73
2021/06/22 11:04:26;;;;;;;5.63;2.67;;;;;;;18.29;63.78;101204.53;5106101;27;20201;-75
2021/06/22 11:07:14;;;;;;;5.83;3.13;;;;;;;18.16;65.12;101172.47;5106487;27;20228;-75
2021/06/22 11:09:42;;;;;;;5.20;3.13;;;;;;;18.31;64.16;101218.56;5105698;27;20261;-73
2021/06/22 11:12:25;;;;;;;3.17;2.50;;;;;;;18.40;62.73;101274.56;5111670;27;20575;-74
2021/06/22 11:15:07;;;;;;;3.80;2.63;;;;;;;18.47;62.33;101256.69;5110935;27;20278;-74
2021/06/22 11:17:55;;;;;;;5.10;2.70;;;;;;;18.65;62.94;101252.47;5108737;27;20214;-75
2021/06/22 11:20:22;;;;;;;3.77;2.40;;;;;;;18.79;61.25;101332.19;5099303;27;20712;-74
2021/06/22 11:23:09;;;;;;;4.70;2.57;;;;;;;18.75;60.34;101372.88;5105665;27;20201;-75
2021/06/22 11:25:54;;;;;;;3.17;2.33;;;;;;;19.01;61.76;101302.22;5105887;27;20236;-75
2021/06/22 11:28:23;;;;;;;4.13;2.30;;;;;;;19.27;60.35;101359.41;5105448;27;20230;-75